Flugplatz Berlin-Schönefeld International

Bericht für EDDB

vom 01.12. um 09:50 UTC

Wind 14 kt aus 210°

Sichtweite 10 km oder mehr

schwacher Regen

gering bewölkt in 900 ft

aufgebrochene Bewölkung in 1600 ft

Temperatur 6.0°C

Taupunkt 5.0°C

Luftfeuchtigkeit 93%

Luftdruck 993 hPa

EDDB 010950Z 21014KT 9999 -RA FEW009 BKN016 06/05 Q0993 TEMPO 21015G25KT

Prognose für EDDB

vom 01.12. um 05:00 UTC

Zwischen 06:00 UTC und 07:00 UTC

Wind 10 kt aus 160°

Sichtweite 10 km oder mehr

aufgelockert bewölkt in 800 ft

aufgebrochene Bewölkung in 2000 ft


Zwischen 06:00 UTC und 10:00 UTC zeitweise mit einer Wahrscheinlichkeit von 30%

Sichtweite 2500 m

Regen

Sprühregen

aufgebrochene Bewölkung in 400 ft


Zwischen 06:00 UTC und 12:00 UTC zeitweise

Sichtweite 4000 m

schwacher Regen

schwacher Sprühregen

aufgebrochene Bewölkung in 800 ft


Zwischen 07:00 und 10:00 UTC übergehend zu

Wind 15 kt aus 200° in Böen 25 kt

Sichtweite 10 km oder mehr

aufgebrochene Bewölkung in 1300 ft


Zwischen 10:00 und 13:00 UTC übergehend zu

Wind 20 kt aus 230° in Böen 35 kt

Sichtweite 10 km oder mehr

aufgebrochene Bewölkung in 3500 ft


Zwischen 21:00 UTC und 02:00 UTC zeitweise

Wind 30 kt aus 230° in Böen 45 kt

TAF EDDB 010500Z 0106/0206 16010KT 9999 SCT008 BKN020 TEMPO 0106/0112 4000 -RADZ BKN008 PROB30 TEMPO 0106/0110 2500 RADZ BKN004 BECMG 0107/0110 20015G25KT BKN013 BECMG 0110/0113 23020G35KT BKN035 TEMPO 0121/0202 23030G45KT
Impressum